Time;durP1;ratioP1;P1;durP2;ratioP2;P2;SDS_P1;SDS_P2;PMS_P1;PMS_P2;Temp;Humidity;BMP_temperature;BMP_pressure;BME280_temperature;BME280_humidity;BME280_pressure;Samples;Min_cycle;Max_cycle;Signal;HPM_P1;HPM_P2
2022/01/12 00:01:05;;;;;;;17.23;9.00;;;2.70;63.30;;;;;;4977387;28;20065;-56
2022/01/12 00:03:35;;;;;;;14.48;8.52;;;2.80;63.30;;;;;;4961806;28;20049;-55
2022/01/12 00:06:02;;;;;;;17.30;9.77;;;2.80;63.30;;;;;;4978417;28;20057;-54
2022/01/12 00:08:31;;;;;;;16.55;9.10;;;2.80;63.30;;;;;;4974990;28;20041;-55
2022/01/12 00:11:02;;;;;;;16.08;8.68;;;2.90;63.40;;;;;;4975465;28;20109;-56
2022/01/12 00:13:30;;;;;;;16.20;8.80;;;2.90;63.30;;;;;;4979391;28;20054;-55
2022/01/12 00:15:56;;;;;;;16.58;9.13;;;3.00;63.30;;;;;;4976764;28;20026;-54
2022/01/12 00:18:22;;;;;;;18.67;8.70;;;3.00;63.20;;;;;;4970030;28;20042;-55
2022/01/12 00:20:50;;;;;;;16.15;9.25;;;3.00;63.20;;;;;;4972024;28;20382;-55
2022/01/12 00:23:18;;;;;;;17.15;9.77;;;3.00;63.00;;;;;;4977604;28;20498;-55
2022/01/12 00:25:58;;;;;;;16.50;8.88;;;3.10;63.10;;;;;;4975277;28;20038;-56
2022/01/12 00:33:57;;;;;;;15.68;8.77;;;3.20;63.00;;;;;;4983488;28;20041;-54
2022/01/12 00:36:23;;;;;;;16.67;9.63;;;3.20;62.90;;;;;;4980729;28;20069;-56
2022/01/12 00:38:49;;;;;;;17.55;9.85;;;3.20;62.90;;;;;;4979666;28;20038;-57
2022/01/12 00:41:17;;;;;;;18.20;10.23;;;3.20;62.80;;;;;;4981256;28;20034;-57
2022/01/12 00:43:47;;;;;;;21.67;10.50;;;3.20;62.80;;;;;;4980823;28;20042;-57
2022/01/12 00:46:14;;;;;;;18.95;9.90;;;3.20;62.80;;;;;;4982128;28;20386;-57
2022/01/12 00:48:41;;;;;;;16.42;9.27;;;3.30;62.80;;;;;;4976621;28;20037;-55
2022/01/12 00:51:10;;;;;;;16.83;9.38;;;3.30;62.80;;;;;;4965088;28;20510;-58
2022/01/12 00:53:38;;;;;;;15.57;10.18;;;3.30;62.70;;;;;;4972827;28;20728;-58
2022/01/12 00:56:05;;;;;;;18.20;10.13;;;3.30;62.70;;;;;;4974189;28;20503;-54
2022/01/12 00:58:32;;;;;;;17.33;10.23;;;3.40;62.70;;;;;;4969948;28;20034;-56
2022/01/12 01:00:58;;;;;;;18.70;10.63;;;3.40;62.70;;;;;;4974454;28;20034;-58
2022/01/12 01:03:24;;;;;;;18.85;10.10;;;3.40;62.70;;;;;;4976026;28;20386;-57
2022/01/12 01:05:51;;;;;;;17.48;10.00;;;3.40;62.60;;;;;;4980421;28;20483;-58
2022/01/12 01:08:17;;;;;;;17.48;9.80;;;3.40;62.60;;;;;;4978836;28;20037;-56
2022/01/12 01:10:46;;;;;;;18.90;10.75;;;3.50;62.70;;;;;;4979271;28;20034;-54
2022/01/12 01:13:18;;;;;;;18.48;10.30;;;3.50;62.70;;;;;;4981110;28;20084;-57
2022/01/12 01:26:36;;;;;;;18.70;10.93;;;3.50;62.60;;;;;;4982737;28;20038;-58
2022/01/12 01:29:03;;;;;;;19.50;10.25;;;3.60;62.70;;;;;;4979268;28;20027;-55
2022/01/12 01:31:32;;;;;;;20.98;11.27;;;3.60;62.80;;;;;;4979234;28;20030;-58
2022/01/12 01:34:06;;;;;;;19.25;10.73;;;3.60;62.80;;;;;;4983424;28;20034;-58
2022/01/12 01:36:44;;;;;;;21.67;12.25;;;3.60;62.80;;;;;;4984426;28;20019;-55
2022/01/12 01:39:14;;;;;;;18.75;10.77;;;3.60;62.80;;;;;;4978035;28;20035;-58
2022/01/12 01:41:44;;;;;;;18.48;10.75;;;3.60;62.80;;;;;;4982727;28;20030;-56
2022/01/12 01:54:55;;;;;;;22.00;12.05;;;3.70;62.70;;;;;;4986363;28;20042;-57
2022/01/12 01:57:21;;;;;;;22.42;11.35;;;3.70;62.60;;;;;;4976461;28;20031;-58
2022/01/12 01:59:47;;;;;;;20.40;12.18;;;3.70;62.60;;;;;;4981792;28;20423;-58
2022/01/12 02:02:14;;;;;;;22.35;11.70;;;3.70;62.60;;;;;;4976537;28;20034;-54
2022/01/12 02:04:41;;;;;;;25.90;12.45;;;3.70;62.70;;;;;;4966920;28;20038;-56
2022/01/12 02:07:07;;;;;;;21.75;12.30;;;3.70;62.70;;;;;;4981351;28;20411;-56
2022/01/12 02:09:37;;;;;;;21.15;11.88;;;3.70;62.80;;;;;;4971762;28;20045;-56
2022/01/12 02:12:03;;;;;;;21.27;11.88;;;3.70;62.70;;;;;;4983130;28;20368;-57
2022/01/12 02:14:29;;;;;;;22.98;12.02;;;3.70;62.70;;;;;;4979955;28;20038;-57
2022/01/12 02:17:05;;;;;;;26.52;11.95;;;3.70;62.60;;;;;;4977296;28;20042;-56
2022/01/12 02:36:27;;;;;;;23.92;12.65;;;3.60;62.50;;;;;;4980078;28;20501;-57
2022/01/12 02:41:39;;;;;;;24.17;12.18;;;3.60;62.70;;;;;;4987929;28;20037;-56
2022/01/12 02:54:45;;;;;;;22.05;12.18;;;3.60;62.80;;;;;;4979234;28;20030;-55
2022/01/12 02:57:11;;;;;;;23.80;12.68;;;3.60;62.80;;;;;;4979282;28;20026;-56
2022/01/12 02:59:45;;;;;;;25.50;12.95;;;3.60;62.90;;;;;;4981858;28;20525;-55
2022/01/12 03:02:27;;;;;;;25.08;12.73;;;3.60;62.90;;;;;;4975832;28;20444;-56
2022/01/12 03:07:37;;;;;;;24.00;12.95;;;3.60;63.00;;;;;;4977285;28;20030;-58
2022/01/12 03:10:08;;;;;;;23.35;12.68;;;3.60;62.90;;;;;;4978883;28;20050;-53
2022/01/12 03:12:39;;;;;;;22.35;12.50;;;3.60;62.90;;;;;;4978206;28;20034;-56
2022/01/12 03:15:05;;;;;;;22.00;12.40;;;3.70;63.00;;;;;;4981656;28;20031;-56
2022/01/12 03:17:32;;;;;;;22.75;12.82;;;3.70;62.90;;;;;;4975977;28;20045;-57
2022/01/12 03:19:58;;;;;;;23.30;12.20;;;3.70;63.50;;;;;;4980636;28;20034;-55
2022/01/12 03:22:24;;;;;;;21.95;12.55;;;3.70;62.90;;;;;;4978551;28;20892;-58
2022/01/12 03:24:50;;;;;;;21.40;11.95;;;3.70;62.80;;;;;;4963341;28;20061;-57
2022/01/12 03:27:17;;;;;;;22.45;12.15;;;3.80;62.90;;;;;;4975496;28;20030;-53
2022/01/12 03:29:48;;;;;;;21.17;11.77;;;3.80;62.90;;;;;;4980620;28;20042;-56
2022/01/12 03:32:18;;;;;;;24.00;12.45;;;3.70;62.70;;;;;;4977266;28;20411;-57
2022/01/12 03:34:53;;;;;;;23.33;12.82;;;3.80;62.80;;;;;;4978634;28;20041;-57
2022/01/12 03:37:41;;;;;;;22.58;12.48;;;3.80;62.70;;;;;;4977567;28;20042;-58
2022/01/12 03:40:09;;;;;;;22.73;11.65;;;3.80;62.70;;;;;;4976531;28;20052;-58
2022/01/12 03:42:36;;;;;;;22.98;12.57;;;3.80;62.60;;;;;;4979378;28;20046;-55
2022/01/12 03:45:03;;;;;;;22.85;12.45;;;3.80;62.50;;;;;;4981860;28;20030;-58
2022/01/12 03:47:29;;;;;;;22.45;12.35;;;3.80;62.40;;;;;;4975587;28;20548;-56
2022/01/12 03:49:55;;;;;;;22.98;12.15;;;3.80;62.40;;;;;;4977903;28;20026;-56
2022/01/12 03:52:21;;;;;;;21.90;12.75;;;3.80;62.40;;;;;;4979465;28;20042;-55
2022/01/12 03:54:47;;;;;;;24.67;11.43;;;3.80;62.40;;;;;;4981569;28;20026;-56
2022/01/12 03:57:14;;;;;;;21.77;11.50;;;3.90;62.50;;;;;;4976065;28;20387;-56
2022/01/12 03:59:40;;;;;;;22.73;12.32;;;3.80;62.50;;;;;;4976003;28;20033;-57
2022/01/12 04:02:06;;;;;;;23.30;12.18;;;3.80;62.50;;;;;;4976278;28;20035;-55
2022/01/12 04:04:37;;;;;;;22.20;12.55;;;3.80;62.50;;;;;;4978416;28;20038;-55
2022/01/12 04:09:48;;;;;;;23.00;11.98;;;3.90;62.50;;;;;;4975775;28;20463;-55
2022/01/12 04:12:16;;;;;;;21.70;11.98;;;3.90;62.50;;;;;;4981015;28;20045;-55
2022/01/12 04:14:42;;;;;;;22.17;12.65;;;3.90;62.50;;;;;;4980636;28;20491;-56
2022/01/12 04:17:08;;;;;;;20.77;11.68;;;3.90;62.50;;;;;;4974480;28;20462;-56
2022/01/12 04:19:36;;;;;;;26.23;13.57;;;3.90;62.50;;;;;;4947878;28;20042;-54
2022/01/12 04:23:16;;;;;;;24.85;12.80;;;3.90;62.50;;;;;;4978649;28;20376;-55
2022/01/12 04:24:49;;;;;;;23.27;13.18;;;3.90;62.40;;;;;;4961051;28;20411;-56
2022/01/12 04:27:15;;;;;;;21.63;12.35;;;3.90;62.30;;;;;;4976001;28;20034;-55
2022/01/12 04:29:42;;;;;;;22.25;12.43;;;3.90;62.30;;;;;;4978248;28;20085;-56
2022/01/12 04:32:09;;;;;;;22.58;12.40;;;3.90;62.30;;;;;;4978020;28;20034;-54
2022/01/12 04:34:35;;;;;;;19.15;10.98;;;3.80;62.30;;;;;;4978195;28;20030;-56
2022/01/12 04:37:01;;;;;;;20.25;11.45;;;3.90;62.50;;;;;;4979709;28;20478;-58
2022/01/12 04:39:27;;;;;;;20.90;11.70;;;3.80;62.50;;;;;;4975516;28;20035;-57
2022/01/12 04:41:54;;;;;;;22.17;11.70;;;3.90;62.60;;;;;;4959325;28;20049;-55
2022/01/12 04:44:20;;;;;;;22.63;12.07;;;3.90;62.70;;;;;;4977961;28;20663;-55
2022/01/12 04:47:05;;;;;;;22.00;12.32;;;3.90;62.70;;;;;;4971720;28;20030;-57
2022/01/12 04:52:13;;;;;;;19.52;11.27;;;3.90;62.70;;;;;;4974236;28;20526;-56
2022/01/12 04:54:39;;;;;;;20.38;12.00;;;3.90;62.70;;;;;;4978791;28;20027;-55
2022/01/12 04:57:05;;;;;;;20.55;12.20;;;3.90;62.60;;;;;;4977545;28;20029;-56
2022/01/12 04:59:34;;;;;;;21.90;11.52;;;4.00;62.60;;;;;;4976509;28;20035;-57
2022/01/12 05:06:18;;;;;;;19.75;11.50;;;4.00;62.60;;;;;;4973548;28;20049;-56
2022/01/12 05:07:43;;;;;;;20.83;11.18;;;4.00;62.40;;;;;;4974253;28;20034;-55
2022/01/12 05:12:56;;;;;;;20.23;10.93;;;4.10;62.30;;;;;;4975971;28;20030;-57
2022/01/12 05:15:29;;;;;;;20.60;11.57;;;4.00;62.20;;;;;;4973203;28;20598;-57
2022/01/12 05:17:56;;;;;;;19.98;10.60;;;4.00;62.20;;;;;;4965060;28;20507;-58
2022/01/12 05:20:23;;;;;;;21.67;12.00;;;4.00;62.10;;;;;;4978467;28;20023;-57
2022/01/12 05:22:50;;;;;;;22.63;11.23;;;4.00;62.00;;;;;;4979458;28;20473;-57
2022/01/12 05:25:19;;;;;;;18.30;11.25;;;4.10;62.10;;;;;;4978643;28;20090;-56
2022/01/12 05:27:46;;;;;;;19.35;11.30;;;4.00;62.00;;;;;;4975702;28;20411;-54
2022/01/12 05:30:13;;;;;;;18.42;10.40;;;4.00;62.00;;;;;;4980705;28;20038;-57
2022/01/12 05:32:40;;;;;;;19.92;10.80;;;4.00;62.00;;;;;;4980324;28;20042;-55
2022/01/12 05:35:09;;;;;;;18.05;10.80;;;4.00;62.10;;;;;;4976497;28;20047;-58
2022/01/12 05:37:35;;;;;;;19.33;10.40;;;4.10;62.20;;;;;;4975501;28;20045;-57
2022/01/12 05:40:01;;;;;;;18.67;10.65;;;4.10;62.20;;;;;;4983676;28;20030;-58
2022/01/12 05:42:27;;;;;;;22.30;11.25;;;4.10;62.20;;;;;;4978569;28;20809;-57
2022/01/12 05:44:54;;;;;;;18.77;9.93;;;4.10;62.20;;;;;;4982675;28;20027;-56
2022/01/12 05:50:17;;;;;;;18.13;9.98;;;4.10;62.20;;;;;;4947089;28;20139;-56
2022/01/12 05:52:43;;;;;;;16.90;9.75;;;4.10;62.10;;;;;;4981247;28;20098;-56
2022/01/12 05:55:10;;;;;;;21.20;10.43;;;4.10;62.20;;;;;;4981944;28;20027;-56
2022/01/12 05:57:38;;;;;;;20.00;10.98;;;4.10;62.20;;;;;;4977355;28;20463;-58
2022/01/12 06:00:10;;;;;;;18.52;10.43;;;4.20;62.20;;;;;;4976838;28;20049;-56
2022/01/12 06:02:36;;;;;;;20.85;11.38;;;4.20;62.20;;;;;;4945388;28;20030;-58
2022/01/12 06:05:04;;;;;;;19.55;10.95;;;4.20;62.10;;;;;;4979720;28;20410;-57
2022/01/12 06:07:30;;;;;;;18.45;10.32;;;4.20;61.90;;;;;;4976059;28;20042;-58
2022/01/12 06:09:56;;;;;;;24.15;11.38;;;4.20;62.00;;;;;;4982138;28;20030;-56
2022/01/12 06:12:22;;;;;;;20.30;11.10;;;4.20;62.10;;;;;;4980522;28;20030;-56
2022/01/12 06:14:49;;;;;;;19.65;11.25;;;4.20;62.00;;;;;;4979605;28;20496;-56
2022/01/12 06:17:15;;;;;;;25.00;14.18;;;4.20;62.10;;;;;;4975883;28;20034;-53
2022/01/12 06:19:41;;;;;;;20.75;11.40;;;4.20;62.00;;;;;;4977310;28;20570;-58
2022/01/12 06:22:07;;;;;;;21.23;12.52;;;4.30;62.10;;;;;;4979906;28;20034;-58
2022/01/12 06:24:34;;;;;;;24.25;13.48;;;4.30;62.10;;;;;;4981227;28;20038;-57
2022/01/12 06:27:01;;;;;;;19.90;11.95;;;4.30;62.10;;;;;;4974276;28;20622;-55
2022/01/12 06:29:40;;;;;;;16.08;10.27;;;4.30;62.10;;;;;;4969948;28;20047;-57
2022/01/12 06:32:07;;;;;;;20.55;11.38;;;4.30;62.10;;;;;;4974024;28;20072;-58
2022/01/12 06:34:33;;;;;;;18.98;11.25;;;4.30;62.10;;;;;;4968187;28;20429;-56
2022/01/12 06:37:00;;;;;;;26.33;11.00;;;4.30;62.00;;;;;;4971453;28;20037;-57
2022/01/12 06:39:27;;;;;;;57.22;24.52;;;4.30;62.00;;;;;;4970219;28;20481;-57
2022/01/12 06:41:55;;;;;;;28.63;15.65;;;4.40;62.10;;;;;;4976370;28;20249;-56
2022/01/12 06:44:22;;;;;;;24.58;13.73;;;4.40;62.10;;;;;;4973949;28;20944;-56
2022/01/12 06:46:51;;;;;;;25.52;12.15;;;4.40;62.10;;;;;;4976123;28;20034;-54
2022/01/12 06:49:18;;;;;;;19.23;10.50;;;4.40;62.10;;;;;;4970638;28;20046;-53
2022/01/12 06:51:45;;;;;;;21.95;11.80;;;4.40;62.10;;;;;;4976296;28;20035;-56
2022/01/12 06:54:13;;;;;;;21.30;11.80;;;4.40;62.00;;;;;;4972350;28;20049;-57
2022/01/12 06:56:40;;;;;;;17.33;10.65;;;4.40;61.90;;;;;;4972775;28;20390;-55
2022/01/12 06:59:06;;;;;;;22.17;12.85;;;4.40;61.90;;;;;;4972592;28;20030;-57
2022/01/12 07:01:33;;;;;;;21.25;11.02;;;4.40;61.80;;;;;;4970936;28;20023;-56
2022/01/12 07:03:59;;;;;;;21.92;11.85;;;4.40;61.70;;;;;;4974659;28;20586;-56
2022/01/12 07:06:26;;;;;;;22.40;12.00;;;4.40;61.60;;;;;;4977846;28;20037;-55
2022/01/12 07:08:52;;;;;;;24.40;12.00;;;4.40;61.60;;;;;;4969706;28;20030;-57
2022/01/12 07:11:18;;;;;;;21.83;12.45;;;4.40;61.60;;;;;;4976209;28;20043;-55
2022/01/12 07:13:44;;;;;;;23.95;11.82;;;4.40;61.70;;;;;;4977528;28;20042;-55
2022/01/12 07:16:11;;;;;;;124.57;44.30;;;4.40;61.70;;;;;;4973454;28;20036;-54
2022/01/12 07:18:38;;;;;;;67.97;29.40;;;4.40;61.70;;;;;;4971417;28;20049;-56
2022/01/12 07:21:04;;;;;;;29.65;15.07;;;4.40;61.70;;;;;;4972328;28;20030;-58
2022/01/12 07:23:31;;;;;;;20.63;11.57;;;4.30;61.70;;;;;;4975350;28;20031;-56
2022/01/12 07:25:57;;;;;;;22.55;11.77;;;4.30;61.70;;;;;;4975898;28;20041;-55
2022/01/12 07:28:23;;;;;;;20.85;11.68;;;4.30;61.70;;;;;;4975198;28;20344;-57
2022/01/12 07:30:50;;;;;;;21.55;10.95;;;4.30;61.70;;;;;;4975040;28;20038;-56
2022/01/12 07:33:16;;;;;;;19.25;11.48;;;4.30;61.80;;;;;;4977091;28;20038;-55
2022/01/12 07:35:43;;;;;;;22.48;11.18;;;4.30;61.70;;;;;;4977667;28;20034;-54
2022/01/12 07:38:10;;;;;;;26.45;11.52;;;4.30;61.70;;;;;;4975321;28;20050;-57
2022/01/12 07:40:37;;;;;;;20.67;11.20;;;4.30;61.70;;;;;;4977408;28;20026;-57
2022/01/12 07:43:04;;;;;;;19.40;11.07;;;4.30;61.60;;;;;;4973737;28;20030;-58
2022/01/12 07:45:31;;;;;;;17.77;10.82;;;4.30;61.60;;;;;;4972914;28;20410;-56
2022/01/12 07:47:57;;;;;;;19.98;11.13;;;4.30;61.60;;;;;;4971949;28;20483;-55
2022/01/12 07:50:24;;;;;;;20.02;10.73;;;4.30;61.70;;;;;;4977750;28;20030;-56
2022/01/12 07:52:53;;;;;;;20.48;10.65;;;4.30;61.80;;;;;;4958910;28;20030;-55
2022/01/12 07:55:21;;;;;;;21.30;11.02;;;4.30;61.80;;;;;;4978294;28;20478;-55
2022/01/12 07:57:48;;;;;;;20.10;11.32;;;4.30;61.80;;;;;;4972915;28;20065;-56
2022/01/12 08:00:16;;;;;;;20.65;11.25;;;4.40;61.90;;;;;;4975135;28;20052;-58
2022/01/12 08:02:42;;;;;;;21.63;11.75;;;4.40;61.90;;;;;;4970599;28;20026;-56
2022/01/12 08:05:09;;;;;;;20.63;10.93;;;4.40;61.90;;;;;;4977554;28;20446;-57
2022/01/12 08:07:36;;;;;;;22.58;11.75;;;4.40;62.00;;;;;;4974009;28;20019;-57
2022/01/12 08:10:06;;;;;;;21.23;11.43;;;4.40;62.00;;;;;;4974698;28;20042;-56
2022/01/12 08:12:33;;;;;;;21.02;11.52;;;4.50;62.00;;;;;;4976353;28;20030;-56
2022/01/12 08:15:00;;;;;;;19.55;11.07;;;4.50;62.00;;;;;;4975731;28;20391;-56
2022/01/12 08:17:26;;;;;;;19.15;11.32;;;4.50;62.00;;;;;;4971837;28;20045;-57
2022/01/12 08:19:55;;;;;;;17.92;11.02;;;4.60;62.10;;;;;;4979247;28;20030;-56
2022/01/12 08:22:21;;;;;;;19.40;11.27;;;4.60;62.00;;;;;;4972320;28;20039;-56
2022/01/12 08:24:47;;;;;;;22.45;11.68;;;4.60;61.90;;;;;;4971734;28;20910;-58
2022/01/12 08:27:14;;;;;;;22.58;11.05;;;4.60;61.90;;;;;;4975702;28;20956;-55
2022/01/12 08:29:40;;;;;;;21.80;11.38;;;4.60;61.90;;;;;;4976418;28;20463;-56
2022/01/12 08:32:06;;;;;;;20.05;10.20;;;4.70;61.80;;;;;;4970837;28;20027;-56
2022/01/12 08:34:33;;;;;;;18.33;10.68;;;4.70;61.70;;;;;;4974950;28;20046;-58
2022/01/12 08:36:59;;;;;;;21.88;11.10;;;4.70;61.70;;;;;;4977399;28;20626;-56
2022/01/12 08:39:25;;;;;;;19.00;10.40;;;4.70;61.70;;;;;;4974881;28;20038;-56
2022/01/12 08:41:51;;;;;;;16.67;10.38;;;4.80;61.70;;;;;;4974618;28;20034;-58
2022/01/12 08:44:18;;;;;;;19.20;10.85;;;4.80;61.70;;;;;;4960014;28;20399;-55
2022/01/12 08:46:44;;;;;;;18.13;10.48;;;4.80;61.70;;;;;;4969628;28;20467;-56
2022/01/12 08:49:10;;;;;;;17.65;10.68;;;4.80;61.70;;;;;;4974938;28;20027;-55
2022/01/12 08:51:37;;;;;;;24.95;11.13;;;4.90;61.60;;;;;;4979644;28;20053;-57
2022/01/12 08:54:04;;;;;;;19.25;11.05;;;4.90;61.60;;;;;;4979493;28;20542;-53
2022/01/12 08:56:32;;;;;;;18.77;10.10;;;4.90;61.60;;;;;;4973489;28;20030;-56
2022/01/12 08:58:59;;;;;;;18.80;10.93;;;4.90;61.60;;;;;;4958534;28;20045;-57
2022/01/12 09:01:25;;;;;;;17.42;10.40;;;5.00;61.60;;;;;;4973558;28;20038;-56
2022/01/12 09:03:51;;;;;;;17.55;10.20;;;5.00;61.60;;;;;;4974889;28;20033;-56
2022/01/12 09:06:17;;;;;;;17.83;10.13;;;5.00;61.60;;;;;;4980537;28;20034;-56
2022/01/12 09:08:45;;;;;;;20.17;11.32;;;5.00;61.50;;;;;;4976232;28;20041;-56
2022/01/12 09:11:13;;;;;;;19.40;11.73;;;5.10;61.50;;;;;;4962435;28;20029;-57
2022/01/12 09:13:40;;;;;;;19.65;11.05;;;5.10;61.50;;;;;;4980658;28;20026;-53
2022/01/12 09:16:08;;;;;;;20.63;11.25;;;5.10;61.50;;;;;;4980972;28;20030;-56
2022/01/12 09:18:35;;;;;;;21.75;12.70;;;5.10;61.40;;;;;;4972587;28;20039;-56
2022/01/12 09:21:01;;;;;;;17.00;10.68;;;5.20;61.50;;;;;;4977030;28;20037;-56
2022/01/12 09:23:28;;;;;;;20.40;11.48;;;5.20;61.40;;;;;;4979310;28;20046;-57
2022/01/12 09:25:54;;;;;;;27.00;15.77;;;5.20;61.40;;;;;;4979476;28;20399;-56
2022/01/12 09:28:20;;;;;;;25.17;14.43;;;5.20;61.40;;;;;;4975326;28;20037;-56
2022/01/12 09:30:47;;;;;;;25.77;16.35;;;5.30;62.10;;;;;;4977850;28;20039;-55
2022/01/12 09:33:13;;;;;;;20.20;12.75;;;5.30;61.40;;;;;;4974058;28;20046;-53
2022/01/12 09:35:40;;;;;;;66.78;30.88;;;5.30;61.40;;;;;;4977224;28;20050;-58
2022/01/12 09:38:06;;;;;;;102.45;48.97;;;5.40;61.40;;;;;;4970925;28;20058;-57
2022/01/12 09:40:32;;;;;;;42.20;23.77;;;5.40;61.40;;;;;;4974279;28;20037;-57
2022/01/12 09:43:04;;;;;;;35.38;20.58;;;5.40;61.30;;;;;;4971307;28;20054;-55
2022/01/12 09:45:32;;;;;;;38.55;21.08;;;5.50;61.20;;;;;;4973737;28;20178;-58
2022/01/12 09:47:58;;;;;;;39.70;21.02;;;5.50;61.20;;;;;;4973081;28;20486;-56
2022/01/12 09:50:25;;;;;;;36.22;19.98;;;5.50;61.20;;;;;;4979045;28;20026;-56
2022/01/12 09:52:52;;;;;;;28.27;18.58;;;5.50;61.30;;;;;;4968812;28;20502;-56
2022/01/12 09:55:20;;;;;;;25.67;15.18;;;5.60;61.30;;;;;;4974727;28;20030;-56
2022/01/12 09:57:46;;;;;;;17.70;11.65;;;5.60;61.30;;;;;;4951261;28;20564;-56
2022/01/12 10:00:15;;;;;;;19.55;12.38;;;5.60;61.30;;;;;;4972865;28;20061;-58
2022/01/12 10:02:42;;;;;;;19.92;11.75;;;5.70;61.30;;;;;;4968481;28;20026;-58
2022/01/12 10:05:10;;;;;;;21.75;14.05;;;5.70;61.30;;;;;;4958966;28;20030;-57
2022/01/12 10:07:37;;;;;;;24.88;14.68;;;5.70;61.30;;;;;;4965237;28;20043;-56
2022/01/12 10:10:17;;;;;;;19.30;12.15;;;5.80;61.40;;;;;;4972856;28;20039;-57
2022/01/12 10:12:54;;;;;;;20.80;11.10;;;5.80;61.30;;;;;;4948515;28;20046;-55
2022/01/12 10:15:21;;;;;;;19.67;10.93;;;5.80;61.30;;;;;;4945812;28;20045;-56
2022/01/12 10:17:49;;;;;;;18.08;10.75;;;5.90;61.40;;;;;;4972614;28;20377;-56
2022/01/12 10:20:21;;;;;;;18.73;11.98;;;5.90;61.40;;;;;;4974745;28;20022;-57
2022/01/12 10:22:56;;;;;;;17.67;10.65;;;6.00;61.40;;;;;;4973615;28;20046;-56
2022/01/12 10:25:24;;;;;;;20.88;11.20;;;6.00;61.30;;;;;;4978420;28;20383;-54
2022/01/12 10:27:50;;;;;;;15.90;9.95;;;6.10;61.30;;;;;;4973126;28;20027;-54
2022/01/12 10:30:27;;;;;;;22.02;14.30;;;6.10;61.30;;;;;;4979386;28;20027;-56
2022/01/12 10:33:00;;;;;;;17.83;10.85;;;6.10;61.20;;;;;;4976850;28;20025;-56
2022/01/12 10:35:28;;;;;;;16.87;10.77;;;6.20;61.20;;;;;;4979573;28;20045;-56
2022/01/12 10:38:13;;;;;;;22.75;12.48;;;6.20;61.10;;;;;;4974986;28;20460;-55
2022/01/12 10:40:47;;;;;;;20.38;12.13;;;6.20;60.90;;;;;;4977379;28;20030;-55
2022/01/12 10:43:33;;;;;;;23.63;13.13;;;6.30;60.80;;;;;;4976615;28;20034;-55
2022/01/12 10:46:01;;;;;;;24.63;15.30;;;6.30;60.70;;;;;;4975402;28;20031;-56
2022/01/12 10:48:46;;;;;;;20.92;12.82;;;6.40;60.80;;;;;;4975453;28;20062;-56
2022/01/12 10:51:32;;;;;;;21.23;12.80;;;6.40;60.60;;;;;;4978725;28;20031;-58
2022/01/12 10:54:01;;;;;;;21.70;11.48;;;6.40;60.60;;;;;;4978293;28;20581;-57
2022/01/12 10:56:28;;;;;;;23.00;11.32;;;6.50;60.80;;;;;;4978751;28;20026;-58
2022/01/12 10:58:56;;;;;;;19.70;10.65;;;6.50;60.70;;;;;;4970136;28;20475;-56
2022/01/12 11:01:24;;;;;;;17.52;11.00;;;6.60;60.70;;;;;;4976947;28;20463;-56
2022/01/12 11:03:51;;;;;;;19.52;11.13;;;6.60;60.60;;;;;;4978561;28;20053;-55
2022/01/12 11:06:17;;;;;;;18.20;11.02;;;6.60;60.60;;;;;;4978555;28;20058;-55
2022/01/12 11:08:47;;;;;;;20.67;11.75;;;6.60;60.70;;;;;;4974607;28;20046;-55
2022/01/12 11:11:17;;;;;;;27.10;11.00;;;6.70;60.70;;;;;;4963461;28;20402;-55
2022/01/12 11:13:45;;;;;;;21.35;11.57;;;6.70;60.70;;;;;;4977674;28;20027;-56
2022/01/12 11:16:12;;;;;;;18.52;11.02;;;6.80;60.80;;;;;;4976039;28;20038;-55
2022/01/12 11:18:39;;;;;;;18.85;11.32;;;6.80;60.90;;;;;;4972945;28;20034;-58
2022/01/12 11:21:08;;;;;;;15.82;10.43;;;6.80;60.80;;;;;;4978438;28;20049;-56
2022/01/12 11:23:41;;;;;;;18.42;10.85;;;6.90;60.80;;;;;;4977841;28;20026;-58
2022/01/12 11:26:19;;;;;;;17.60;10.82;;;6.90;60.80;;;;;;4977589;28;20053;-56
2022/01/12 11:28:48;;;;;;;18.02;10.75;;;7.00;60.80;;;;;;4972726;28;20045;-56
2022/01/12 11:31:19;;;;;;;18.10;10.88;;;7.00;60.80;;;;;;4977790;28;20026;-57
2022/01/12 11:33:46;;;;;;;18.58;10.90;;;7.00;60.90;;;;;;4976485;28;20042;-53
2022/01/12 11:36:15;;;;;;;18.73;11.60;;;7.10;60.90;;;;;;4976388;28;20025;-55
2022/01/12 11:38:47;;;;;;;21.50;12.23;;;7.20;60.90;;;;;;4970525;28;20070;-57
2022/01/12 11:41:28;;;;;;;20.17;12.10;;;7.10;60.70;;;;;;4973087;28;20042;-52
2022/01/12 11:44:12;;;;;;;19.25;11.82;;;7.20;60.50;;;;;;4980116;28;20033;-56
2022/01/12 11:46:57;;;;;;;18.23;11.13;;;7.20;60.20;;;;;;4972095;28;20034;-58
2022/01/12 11:49:37;;;;;;;18.27;11.45;;;7.30;60.20;;;;;;4976002;28;20042;-57
2022/01/12 11:52:22;;;;;;;20.00;11.60;;;7.30;60.20;;;;;;4973518;28;20035;-57
2022/01/12 11:54:53;;;;;;;20.42;10.88;;;7.30;60.20;;;;;;4968026;28;20037;-57
2022/01/12 11:57:34;;;;;;;19.10;11.40;;;7.30;60.30;;;;;;4968923;28;20034;-58
2022/01/12 12:00:12;;;;;;;20.80;10.85;;;7.30;60.90;;;;;;4972129;28;20042;-57
2022/01/12 12:02:44;;;;;;;19.00;10.90;;;7.30;60.20;;;;;;4973470;28;20033;-55
2022/01/12 12:05:16;;;;;;;18.48;10.73;;;7.40;60.00;;;;;;4977323;28;20030;-55
2022/01/12 12:07:54;;;;;;;21.58;12.38;;;7.40;59.80;;;;;;4977054;28;20037;-55
2022/01/12 12:10:25;;;;;;;22.40;11.68;;;7.30;59.50;;;;;;4979379;28;20026;-57
2022/01/12 12:12:53;;;;;;;18.15;11.25;;;7.30;59.50;;;;;;4978747;28;20030;-56
2022/01/12 12:15:23;;;;;;;21.27;11.75;;;7.20;59.50;;;;;;4977299;28;20034;-56
2022/01/12 12:17:50;;;;;;;20.33;12.10;;;7.20;59.50;;;;;;4974768;28;20042;-55
2022/01/12 12:20:19;;;;;;;19.98;12.15;;;7.20;59.60;;;;;;4944796;28;20042;-56
2022/01/12 12:22:47;;;;;;;22.27;11.70;;;7.10;59.50;;;;;;4973192;28;20038;-53
2022/01/12 12:25:16;;;;;;;19.83;11.77;;;7.10;59.60;;;;;;4981076;28;20035;-55
2022/01/12 12:27:45;;;;;;;19.10;10.77;;;7.10;59.60;;;;;;4980790;28;20022;-57
2022/01/12 12:30:16;;;;;;;21.25;11.80;;;7.10;59.60;;;;;;4983749;28;20031;-57
2022/01/12 12:32:46;;;;;;;19.90;11.27;;;7.10;59.60;;;;;;4982473;28;20035;-55
2022/01/12 12:35:12;;;;;;;19.92;11.32;;;7.00;59.50;;;;;;4983911;28;20034;-56
2022/01/12 12:37:44;;;;;;;19.50;11.23;;;7.00;59.60;;;;;;4978177;28;20634;-56
2022/01/12 12:40:20;;;;;;;19.38;11.52;;;7.00;59.70;;;;;;4980050;28;20731;-56
2022/01/12 12:43:08;;;;;;;17.40;10.32;;;7.00;59.80;;;;;;4983407;28;20375;-56
2022/01/12 12:45:43;;;;;;;19.42;11.13;;;7.00;59.90;;;;;;4957378;28;20022;-56
2022/01/12 12:48:12;;;;;;;18.30;11.18;;;7.00;59.80;;;;;;4974881;28;20077;-56
2022/01/12 12:50:39;;;;;;;18.65;10.98;;;7.00;60.30;;;;;;4982944;28;20031;-57
2022/01/12 12:53:06;;;;;;;19.20;10.48;;;7.00;59.70;;;;;;4983739;28;20108;-56
2022/01/12 12:55:43;;;;;;;19.67;10.65;;;6.90;59.70;;;;;;4982934;28;20039;-56
2022/01/12 12:58:10;;;;;;;19.33;11.32;;;7.00;59.70;;;;;;4979806;28;20050;-54
2022/01/12 13:00:37;;;;;;;20.45;11.40;;;7.00;59.80;;;;;;4981331;28;20026;-56
2022/01/12 13:03:05;;;;;;;21.52;11.48;;;6.90;59.90;;;;;;4981421;28;20487;-55
2022/01/12 13:05:34;;;;;;;21.42;12.32;;;6.90;60.00;;;;;;4981233;28;20049;-56
2022/01/12 13:08:01;;;;;;;20.27;11.30;;;6.90;60.00;;;;;;4980125;28;20034;-56
2022/01/12 13:10:30;;;;;;;22.75;11.73;;;6.90;60.20;;;;;;4982914;28;20041;-54
2022/01/12 13:13:02;;;;;;;22.10;11.68;;;6.90;60.20;;;;;;4975147;28;20049;-57
2022/01/12 13:15:34;;;;;;;30.52;12.32;;;6.90;60.00;;;;;;4978819;28;20046;-54
2022/01/12 13:18:18;;;;;;;32.00;16.00;;;6.90;59.80;;;;;;4978903;28;20022;-56
2022/01/12 13:21:10;;;;;;;28.38;15.55;;;6.90;59.80;;;;;;4979707;28;20038;-57
2022/01/12 13:23:45;;;;;;;35.95;18.85;;;6.90;59.70;;;;;;4981050;28;20038;-56
2022/01/12 13:26:14;;;;;;;40.25;20.27;;;6.90;59.60;;;;;;4982772;28;20042;-53
2022/01/12 13:28:44;;;;;;;37.22;17.42;;;6.90;59.60;;;;;;4980347;28;20030;-56
2022/01/12 13:31:12;;;;;;;36.72;16.25;;;6.90;59.60;;;;;;4981658;28;20033;-57
2022/01/12 13:33:41;;;;;;;42.40;18.98;;;6.90;59.70;;;;;;4982205;28;20037;-54
2022/01/12 13:36:17;;;;;;;46.65;20.48;;;6.90;59.70;;;;;;4980871;28;20022;-57
2022/01/12 13:38:54;;;;;;;59.38;26.05;;;7.00;59.90;;;;;;4962434;28;20046;-57
2022/01/12 13:41:22;;;;;;;43.85;19.48;;;7.00;59.90;;;;;;4980173;28;20030;-56
2022/01/12 13:43:58;;;;;;;61.42;21.20;;;7.00;60.00;;;;;;4982055;28;20050;-55
2022/01/12 13:46:33;;;;;;;46.00;17.83;;;7.00;60.00;;;;;;4978906;28;20038;-57
2022/01/12 13:51:43;;;;;;;46.17;18.02;;;7.10;60.10;;;;;;4982660;28;20062;-58
2022/01/12 13:54:15;;;;;;;48.53;18.00;;;7.10;60.10;;;;;;4982031;28;20022;-58
2022/01/12 13:56:50;;;;;;;53.67;17.42;;;7.10;60.00;;;;;;4980950;28;20035;-55
2022/01/12 13:59:18;;;;;;;51.20;18.10;;;7.10;60.00;;;;;;4961407;28;20041;-56
2022/01/12 14:01:45;;;;;;;45.53;17.25;;;7.20;60.10;;;;;;4979605;28;20360;-57
2022/01/12 14:04:22;;;;;;;48.10;18.95;;;7.20;60.10;;;;;;4978685;28;20027;-57